Map

Track Data

SID SEASON NUMBER BASIN SUBBASIN NAME ISO_TIME NATURE LAT LON WMO_WIND WMO_PRES WMO_AGENCY TRACK_TYPE DIST2LAND LANDFALL IFLAG USA_AGENCY USA_ATCF_ID USA_LAT USA_LON USA_RECORD USA_STATUS USA_WIND USA_PRES USA_SSHS USA_R34_NE USA_R34_SE USA_R34_SW USA_R34_NW USA_R50_NE USA_R50_SE USA_R50_SW USA_R50_NW USA_R64_NE USA_R64_SE USA_R64_SW USA_R64_NW USA_POCI USA_ROCI USA_RMW USA_EYE TOKYO_LAT TOKYO_LON TOKYO_GRADE TOKYO_WIND TOKYO_PRES TOKYO_R50_DIR TOKYO_R50_LONG TOKYO_R50_SHORT TOKYO_R30_DIR TOKYO_R30_LONG TOKYO_R30_SHORT TOKYO_LAND CMA_LAT CMA_LON CMA_CAT CMA_WIND CMA_PRES HKO_LAT HKO_LON HKO_CAT HKO_WIND HKO_PRES NEWDELHI_LAT NEWDELHI_LON NEWDELHI_GRADE NEWDELHI_WIND NEWDELHI_PRES NEWDELHI_CI NEWDELHI_DP NEWDELHI_POCI REUNION_LAT REUNION_LON REUNION_TYPE REUNION_WIND REUNION_PRES REUNION_TNUM REUNION_CI REUNION_RMW REUNION_R34_NE REUNION_R34_SE REUNION_R34_SW REUNION_R34_NW REUNION_R50_NE REUNION_R50_SE REUNION_R50_SW REUNION_R50_NW REUNION_R64_NE REUNION_R64_SE REUNION_R64_SW REUNION_R64_NW BOM_LAT BOM_LON BOM_TYPE BOM_WIND BOM_PRES BOM_TNUM BOM_CI BOM_RMW BOM_R34_NE BOM_R34_SE BOM_R34_SW BOM_R34_NW BOM_R50_NE BOM_R50_SE BOM_R50_SW BOM_R50_NW BOM_R64_NE BOM_R64_SE BOM_R64_SW BOM_R64_NW BOM_ROCI BOM_POCI BOM_EYE BOM_POS_METHOD BOM_PRES_METHOD NADI_LAT NADI_LON NADI_CAT NADI_WIND NADI_PRES WELLINGTON_LAT WELLINGTON_LON WELLINGTON_WIND WELLINGTON_PRES DS824_LAT DS824_LON DS824_STAGE DS824_WIND DS824_PRES TD9636_LAT TD9636_LON TD9636_STAGE TD9636_WIND TD9636_PRES TD9635_LAT TD9635_LON TD9635_WIND TD9635_PRES TD9635_ROCI NEUMANN_LAT NEUMANN_LON NEUMANN_CLASS NEUMANN_WIND NEUMANN_PRES MLC_LAT MLC_LON MLC_CLASS MLC_WIND MLC_PRES USA_GUST BOM_GUST BOM_GUST_PER REUNION_GUST REUNION_GUST_PER USA_SEAHGT USA_SEARAD_NE USA_SEARAD_SE USA_SEARAD_SW USA_SEARAD_NW STORM_SPEED STORM_DIR
1905274N11281 1905 46 NA CS NOT_NAMED 1905-10-01 06:00:00 TS 11.0000 -79.2000 30 hurdat_atl main 168 168 O_____________ hurdat_atl AL041905 11.0000 -79.2000 TD 30 -1 2 94
1905274N11281 1905 46 NA CS NOT_NAMED 1905-10-01 09:00:00 TS 10.9925 -79.1025 main 168 168 P_____________ AL041905 10.9925 -79.1025 TD 30 -1 2 90
1905274N11281 1905 46 NA CS NOT_NAMED 1905-10-01 12:00:00 TS 11.0000 -79.0000 30 hurdat_atl main 168 168 O_____________ hurdat_atl AL041905 11.0000 -79.0000 TD 30 -1 2 78
1905274N11281 1905 46 NA CS NOT_NAMED 1905-10-01 15:00:00 TS 11.0350 -78.8925 main 169 169 P_____________ AL041905 11.0350 -78.8925 TD 30 -1 2 63
1905274N11281 1905 46 NA CS NOT_NAMED 1905-10-01 18:00:00 TS 11.1000 -78.8000 30 hurdat_atl main 182 182 O_____________ hurdat_atl AL041905 11.1000 -78.8000 TD 30 -1 2 43
1905274N11281 1905 46 NA CS NOT_NAMED 1905-10-01 21:00:00 TS 11.1925 -78.7425 main 195 195 P_____________ AL041905 11.1925 -78.7425 TD 30 -1 2 27
1905274N11281 1905 46 NA CS NOT_NAMED 1905-10-02 00:00:00 TS 11.3000 -78.7000 30 hurdat_atl main 206 206 O_____________ hurdat_atl AL041905 11.3000 -78.7000 TD 30 -1 2 24
1905274N11281 1905 46 NA CS NOT_NAMED 1905-10-02 03:00:00 TS 11.4000 -78.6500 main 219 219 P_____________ AL041905 11.4000 -78.6500 TD 30 -1 2 27
1905274N11281 1905 46 NA CS NOT_NAMED 1905-10-02 06:00:00 TS 11.5000 -78.6000 30 hurdat_atl main 230 230 O_____________ hurdat_atl AL041905 11.5000 -78.6000 TD 30 -1 2 25
1905274N11281 1905 46 NA CS NOT_NAMED 1905-10-02 09:00:00 TS 11.6000 -78.5575 main 241 241 P_____________ AL041905 11.6000 -78.5575 TD 30 -1 2 27
1905274N11281 1905 46 NA CS NOT_NAMED 1905-10-02 12:00:00 TS 11.7000 -78.5000 30 hurdat_atl main 255 255 O_____________ hurdat_atl AL041905 11.7000 -78.5000 TD 30 -1 3 38
1905274N11281 1905 46 NA CS NOT_NAMED 1905-10-02 15:00:00 TS 11.8000 -78.4000 main 268 268 P_____________ AL041905 11.8000 -78.4000 TD 30 -1 3 44
1905274N11281 1905 46 NA CS NOT_NAMED 1905-10-02 18:00:00 TS 11.9000 -78.3000 30 hurdat_atl main 282 282 O_____________ hurdat_atl AL041905 11.9000 -78.3000 TD 30 -1 2 39
1905274N11281 1905 46 NA CS NOT_NAMED 1905-10-02 21:00:00 TS 11.9925 -78.2425 main 296 296 P_____________ AL041905 11.9925 -78.2425 TD 32 -1 2 27
1905274N11281 1905 46 NA CS NOT_NAMED 1905-10-03 00:00:00 TS 12.1000 -78.2000 35 hurdat_atl main 307 307 O_____________ hurdat_atl AL041905 12.1000 -78.2000 TS 35 0 3 20
1905274N11281 1905 46 NA CS NOT_NAMED 1905-10-03 03:00:00 TS 12.2425 -78.1500 main 321 321 P_____________ AL041905 12.2425 -78.1500 TS 35 0 3 17
1905274N11281 1905 46 NA CS NOT_NAMED 1905-10-03 06:00:00 TS 12.4000 -78.1000 35 hurdat_atl main 342 342 O_____________ hurdat_atl AL041905 12.4000 -78.1000 TS 35 0 3 19
1905274N11281 1905 46 NA CS NOT_NAMED 1905-10-03 09:00:00 TS 12.5350 -78.0500 main 345 345 P_____________ AL041905 12.5350 -78.0500 TS 35 0 3 17
1905274N11281 1905 46 NA CS NOT_NAMED 1905-10-03 12:00:00 TS 12.7000 -78.0000 35 hurdat_atl main 359 359 O_____________ hurdat_atl AL041905 12.7000 -78.0000 TS 35 0 4 13
1905274N11281 1905 46 NA CS NOT_NAMED 1905-10-03 15:00:00 TS 12.9350 -77.9500 main 367 367 P_____________ AL041905 12.9350 -77.9500 TS 35 0 5 11
1905274N11281 1905 46 NA CS NOT_NAMED 1905-10-03 18:00:00 TS 13.2000 -77.9000 35 hurdat_atl main 390 390 O_____________ hurdat_atl AL041905 13.2000 -77.9000 TS 35 0 5 10
1905274N11281 1905 46 NA CS NOT_NAMED 1905-10-03 21:00:00 TS 13.4575 -77.8500 main 406 406 P_____________ AL041905 13.4575 -77.8500 TS 37 0 5 11
1905274N11281 1905 46 NA CS NOT_NAMED 1905-10-04 00:00:00 TS 13.7000 -77.8000 40 hurdat_atl main 423 423 O_____________ hurdat_atl AL041905 13.7000 -77.8000 TS 40 0 5 11
1905274N11281 1905 46 NA CS NOT_NAMED 1905-10-04 03:00:00 TS 13.9075 -77.7575 main 430 406 P_____________ AL041905 13.9075 -77.7575 TS 40 0 4 13
1905274N11281 1905 46 NA CS NOT_NAMED 1905-10-04 06:00:00 TS 14.1000 -77.7000 40 hurdat_atl main 406 382 O_____________ hurdat_atl AL041905 14.1000 -77.7000 TS 40 0 4 18
1905274N11281 1905 46 NA CS NOT_NAMED 1905-10-04 09:00:00 TS 14.2775 -77.6299 main 382 359 P_____________ AL041905 14.2775 -77.6299 TS 42 0 4 26
1905274N11281 1905 46 NA CS NOT_NAMED 1905-10-04 12:00:00 TS 14.5000 -77.5000 45 hurdat_atl main 359 324 O_____________ hurdat_atl AL041905 14.5000 -77.5000 TS 45 0 7 32
1905274N11281 1905 46 NA CS NOT_NAMED 1905-10-04 15:00:00 TS 14.8350 -77.2726 main 324 280 P_____________ AL041905 14.8350 -77.2726 TS 45 0 9 35
1905274N11281 1905 46 NA CS NOT_NAMED 1905-10-04 18:00:00 TS 15.2000 -77.0000 45 hurdat_atl main 280 249 O_____________ hurdat_atl AL041905 15.2000 -77.0000 TS 45 0 9 37
1905274N11281 1905 46 NA CS NOT_NAMED 1905-10-04 21:00:00 TS 15.5150 -76.7499 main 251 225 P_____________ AL041905 15.5150 -76.7499 TS 47 0 8 39
1905274N11281 1905 46 NA CS NOT_NAMED 1905-10-05 00:00:00 TS 15.8000 -76.5000 50 hurdat_atl main 225 212 O_____________ hurdat_atl AL041905 15.8000 -76.5000 TS 50 0 7 42
1905274N11281 1905 46 NA CS NOT_NAMED 1905-10-05 03:00:00 TS 16.0425 -76.2499 main 212 180 P_____________ AL041905 16.0425 -76.2499 TS 50 0 7 44
1905274N11281 1905 46 NA CS NOT_NAMED 1905-10-05 06:00:00 TS 16.3000 -76.0000 50 hurdat_atl main 180 151 O_____________ hurdat_atl AL041905 16.3000 -76.0000 TS 50 0 7 40
1905274N11281 1905 46 NA CS NOT_NAMED 1905-10-05 09:00:00 TS 16.6049 -75.7647 main 151 125 P_____________ AL041905 16.6049 -75.7647 TS 52 0 9 34
1905274N11281 1905 46 NA CS NOT_NAMED 1905-10-05 12:00:00 TS 17.0000 -75.5000 55 hurdat_atl main 125 110 O_____________ hurdat_atl AL041905 17.0000 -75.5000 TS 55 0 11 32
1905274N11281 1905 46 NA CS NOT_NAMED 1905-10-05 15:00:00 TS 17.5201 -75.1576 main 115 46 P_____________ AL041905 17.5201 -75.1576 TS 55 0 13 31
1905274N11281 1905 46 NA CS NOT_NAMED 1905-10-05 18:00:00 TS 18.1000 -74.8000 55 hurdat_atl main 46 10 O_____________ hurdat_atl AL041905 18.1000 -74.8000 TS 55 0 13 29
1905274N11281 1905 46 NA CS NOT_NAMED 1905-10-05 21:00:00 TS 18.6574 -74.4923 main 15 11 P_____________ AL041905 18.6574 -74.4923 TS 57 0 12 27
1905274N11281 1905 46 NA CS NOT_NAMED 1905-10-06 00:00:00 TS 19.2000 -74.2000 60 hurdat_atl main 67 41 O_____________ hurdat_atl AL041905 19.2000 -74.2000 TS 60 0 12 28
1905274N11281 1905 46 NA CS NOT_NAMED 1905-10-06 03:00:00 TS 19.7224 -73.8999 main 41 33 P_____________ AL041905 19.7224 -73.8999 TS 60 0 12 29
1905274N11281 1905 46 NA NA NOT_NAMED 1905-10-06 06:00:00 TS 20.2000 -73.6000 60 hurdat_atl main 49 44 O_____________ hurdat_atl AL041905 20.2000 -73.6000 TS 60 0 10 33
1905274N11281 1905 46 NA NA NOT_NAMED 1905-10-06 09:00:00 TS 20.5924 -73.3070 main 44 10 P_____________ AL041905 20.5924 -73.3070 TS 60 0 10 35
1905274N11281 1905 46 NA NA NOT_NAMED 1905-10-06 12:00:00 TS 21.0000 -73.0000 60 hurdat_atl main 10 10 O_____________ hurdat_atl AL041905 21.0000 -73.0000 TS 60 0 11 33
1905274N11281 1905 46 NA NA NOT_NAMED 1905-10-06 15:00:00 TS 21.5275 -72.6500 main 45 45 P_____________ AL041905 21.5275 -72.6500 TS 60 0 13 31
1905274N11281 1905 46 NA NA NOT_NAMED 1905-10-06 18:00:00 TS 22.1000 -72.3000 60 hurdat_atl main 123 123 O_____________ hurdat_atl AL041905 22.1000 -72.3000 TS 60 0 13 29
1905274N11281 1905 46 NA NA NOT_NAMED 1905-10-06 21:00:00 TS 22.6499 -71.9922 main 187 187 P_____________ AL041905 22.6499 -71.9922 TS 60 0 12 27
1905274N11281 1905 46 NA NA NOT_NAMED 1905-10-07 00:00:00 TS 23.2000 -71.7000 60 hurdat_atl main 260 260 O_____________ hurdat_atl AL041905 23.2000 -71.7000 TS 60 0 12 26
1905274N11281 1905 46 NA NA NOT_NAMED 1905-10-07 03:00:00 TS 23.7574 -71.3998 main 333 333 P_____________ AL041905 23.7574 -71.3998 TS 60 0 12 27
1905274N11281 1905 46 NA NA NOT_NAMED 1905-10-07 06:00:00 TS 24.3000 -71.1000 60 hurdat_atl main 397 397 O_____________ hurdat_atl AL041905 24.3000 -71.1000 TS 60 0 12 27
1905274N11281 1905 46 NA NA NOT_NAMED 1905-10-07 09:00:00 TS 24.7998 -70.8218 main 461 461 P_____________ AL041905 24.7998 -70.8218 TS 60 0 11 29
1905274N11281 1905 46 NA NA NOT_NAMED 1905-10-07 12:00:00 TS 25.3000 -70.5000 60 hurdat_atl main 524 524 O_____________ hurdat_atl AL041905 25.3000 -70.5000 TS 60 0 13 32
1905274N11281 1905 46 NA NA NOT_NAMED 1905-10-07 15:00:00 TS 25.8575 -70.0800 main 602 602 P_____________ AL041905 25.8575 -70.0800 TS 60 0 14 36
1905274N11281 1905 46 NA NA NOT_NAMED 1905-10-07 18:00:00 TS 26.4000 -69.6000 60 hurdat_atl main 676 676 O_____________ hurdat_atl AL041905 26.4000 -69.6000 TS 60 0 13 41
1905274N11281 1905 46 NA NA NOT_NAMED 1905-10-07 21:00:00 TS 26.8724 -69.1071 main 749 749 P_____________ AL041905 26.8724 -69.1071 TS 62 0 13 45
1905274N11281 1905 46 NA NA NOT_NAMED 1905-10-08 00:00:00 TS 27.3000 -68.6000 65 hurdat_atl main 814 814 O_____________ hurdat_atl AL041905 27.3000 -68.6000 HU 65 1 12 47
1905274N11281 1905 46 NA NA NOT_NAMED 1905-10-08 03:00:00 TS 27.6997 -68.1068 main 879 879 P_____________ AL041905 27.6997 -68.1068 HU 67 1 12 48
1905274N11281 1905 46 NA NA NOT_NAMED 1905-10-08 06:00:00 TS 28.1000 -67.6000 70 hurdat_atl main 944 944 O_____________ hurdat_atl AL041905 28.1000 -67.6000 HU 70 1 12 47
1905274N11281 1905 46 NA NA NOT_NAMED 1905-10-08 09:00:00 TS 28.5270 -67.0865 main 1009 1009 P_____________ AL041905 28.5270 -67.0865 HU 72 1 13 47
1905274N11281 1905 46 NA NA NOT_NAMED 1905-10-08 12:00:00 TS 29.0000 -66.5000 75 hurdat_atl main 1089 1089 O_____________ hurdat_atl AL041905 29.0000 -66.5000 HU 75 1 16 48
1905274N11281 1905 46 NA NA NOT_NAMED 1905-10-08 15:00:00 TS 29.5653 -65.7658 main 1138 1138 P_____________ AL041905 29.5653 -65.7658 HU 80 1 17 50
1905274N11281 1905 46 NA NA NOT_NAMED 1905-10-08 18:00:00 TS 30.1000 -65.0000 85 hurdat_atl main 1165 1165 O_____________ hurdat_atl AL041905 30.1000 -65.0000 HU 85 2 15 54
1905274N11281 1905 46 NA NA NOT_NAMED 1905-10-08 21:00:00 TS 30.4641 -64.3556 main 1187 1187 P_____________ AL041905 30.4641 -64.3556 HU 90 2 13 58
1905274N11281 1905 46 NA NA NOT_NAMED 1905-10-09 00:00:00 TS 30.8000 -63.7000 95 hurdat_atl main 1227 1227 O_____________ hurdat_atl AL041905 30.8000 -63.7000 HU 95 2 15 57
1905274N11281 1905 46 NA NA NOT_NAMED 1905-10-09 03:00:00 TS 31.2574 -62.9229 main 1267 1267 P_____________ AL041905 31.2574 -62.9229 HU 100 3 16 57
1905274N11281 1905 46 NA NA NOT_NAMED 1905-10-09 06:00:00 TS 31.7000 -62.1000 105 hurdat_atl main 1315 1310 O_____________ hurdat_atl AL041905 31.7000 -62.1000 HU 105 3 15 59
1905274N11281 1905 46 NA NA NOT_NAMED 1905-10-09 09:00:00 TS 32.0194 -61.4027 main 1321 1309 P_____________ AL041905 32.0194 -61.4027 HU 105 3 15 66
1905274N11281 1905 46 NA NA NOT_NAMED 1905-10-09 12:00:00 TS 32.3000 -60.5000 105 hurdat_atl main 1315 1310 O_____________ hurdat_atl AL041905 32.3000 -60.5000 HU 105 3 20 73
1905274N11281 1905 46 NA NA NOT_NAMED 1905-10-09 15:00:00 TS 32.6171 -59.0833 main 1328 1324 P_____________ AL041905 32.6171 -59.0833 HU 105 3 26 77
1905274N11281 1905 46 NA NA NOT_NAMED 1905-10-09 18:00:00 TS 32.9000 -57.5000 105 hurdat_atl main 1360 1360 O_____________ hurdat_atl AL041905 32.9000 -57.5000 HU 105 3 25 79
1905274N11281 1905 46 NA NA NOT_NAMED 1905-10-09 21:00:00 TS 33.0905 -56.1176 main 1405 1405 P_____________ AL041905 33.0905 -56.1176 HU 105 3 23 80
1905274N11281 1905 46 NA NA NOT_NAMED 1905-10-10 00:00:00 TS 33.3000 -54.8000 105 hurdat_atl main 1429 1429 O_____________ hurdat_atl AL041905 33.3000 -54.8000 HU 105 3 23 77
1905274N11281 1905 46 NA NA NOT_NAMED 1905-10-10 03:00:00 TS 33.6043 -53.4619 main 1444 1404 P_____________ AL041905 33.6043 -53.4619 HU 102 3 23 72
1905274N11281 1905 46 NA NA NOT_NAMED 1905-10-10 06:00:00 TS 34.0000 -52.2000 100 hurdat_atl main 1404 1367 O_____________ hurdat_atl AL041905 34.0000 -52.2000 HU 100 3 22 67
1905274N11281 1905 46 NA NA NOT_NAMED 1905-10-10 09:00:00 TS 34.4545 -51.0097 main 1358 1317 P_____________ AL041905 34.4545 -51.0097 HU 97 3 21 61
1905274N11281 1905 46 NA NA NOT_NAMED 1905-10-10 12:00:00 TS 35.0000 -50.0000 95 hurdat_atl main 1317 1268 O_____________ hurdat_atl AL041905 35.0000 -50.0000 HU 95 2 19 52
1905274N11281 1905 46 NA NA NOT_NAMED 1905-10-10 15:00:00 TS 35.6040 -49.1868 main 1268 1207 P_____________ AL041905 35.6040 -49.1868 HU 92 2 17 41
1905274N11281 1905 46 NA NA NOT_NAMED 1905-10-10 18:00:00 TS 36.3000 -48.6000 90 hurdat_atl main 1207 1144 O_____________ hurdat_atl AL041905 36.3000 -48.6000 HU 90 2 17 28
1905274N11281 1905 46 NA NA NOT_NAMED 1905-10-10 21:00:00 TS 37.0692 -48.2028 main 1133 1060 P_____________ AL041905 37.0692 -48.2028 HU 87 2 17 19
1905274N11281 1905 46 NA NA NOT_NAMED 1905-10-11 00:00:00 TS 37.9000 -47.9000 85 hurdat_atl main 1060 989 O_____________ hurdat_atl AL041905 37.9000 -47.9000 HU 85 2 18 17
1905274N11281 1905 46 NA NA NOT_NAMED 1905-10-11 03:00:00 TS 38.7647 -47.5291 main 983 920 P_____________ AL041905 38.7647 -47.5291 HU 82 1 18 20
1905274N11281 1905 46 NA NA NOT_NAMED 1905-10-11 06:00:00 ET 39.6000 -47.1000 80 hurdat_atl main 920 882 O_____________ hurdat_atl AL041905 39.6000 -47.1000 EX 80 -4 17 26
1905274N11281 1905 46 NA NA NOT_NAMED 1905-10-11 09:00:00 ET 40.2849 -46.5779 main 878 847 P_____________ AL041905 40.2849 -46.5779 EX 80 -4 16 31
1905274N11281 1905 46 NA NA NOT_NAMED 1905-10-11 12:00:00 ET 41.0000 -46.0000 80 hurdat_atl main 847 816 O_____________ hurdat_atl AL041905 41.0000 -46.0000 EX 80 -4 19 31
1905274N11281 1905 46 NA NA NOT_NAMED 1905-10-11 15:00:00 ET 41.8833 -45.3067 main 815 782 P_____________ AL041905 41.8833 -45.3067 EX 80 -4 21 25
1905274N11281 1905 46 NA NA NOT_NAMED 1905-10-11 18:00:00 ET 42.9000 -44.8000 80 945 hurdat_atl main 775 716 O_____________ hurdat_atl AL041905 42.9000 -44.8000 EX 80 945 -4 22 11
1905274N11281 1905 46 NA NA NOT_NAMED 1905-10-11 21:00:00 ET 44.0566 -44.7329 main 710 639 P_____________ AL041905 44.0566 -44.7329 EX 77 -4 23 356
1905274N11281 1905 46 NA NA NOT_NAMED 1905-10-12 00:00:00 ET 45.2000 -45.0000 75 hurdat_atl main 634 567 O_____________ hurdat_atl AL041905 45.2000 -45.0000 EX 75 -4 21 347
1905274N11281 1905 46 NA NA NOT_NAMED 1905-10-12 03:00:00 ET 46.1222 -45.4041 main 567 500 P_____________ AL041905 46.1222 -45.4041 EX 72 -4 19 339
1905274N11281 1905 46 NA NA NOT_NAMED 1905-10-12 06:00:00 ET 47.0000 -46.0000 70 hurdat_atl main 498 441 O_____________ hurdat_atl AL041905 47.0000 -46.0000 EX 70 -4 21 335
1905274N11281 1905 46 NA NA NOT_NAMED 1905-10-12 09:00:00 ET 48.0534 -46.7529 main 436 400 P_____________ AL041905 48.0534 -46.7529 EX 67 -4 22 333
1905274N11281 1905 46 NA NA NOT_NAMED 1905-10-12 12:00:00 ET 49.0000 -47.5000 65 hurdat_atl main 400 382 O_____________ hurdat_atl AL041905 49.0000 -47.5000 EX 65 -4 18 332
1905274N11281 1905 46 NA NA NOT_NAMED 1905-10-12 15:00:00 ET 49.6316 -48.0070 main 382 373 P_____________ AL041905 49.6316 -48.0070 EX 60 -4 12 332
1905274N11281 1905 46 NA NA NOT_NAMED 1905-10-12 18:00:00 ET 50.1000 -48.4000 55 hurdat_atl main 375 360 O_____________ hurdat_atl AL041905 50.1000 -48.4000 EX 55 -4 10 331
1905274N11281 1905 46 NA NA NOT_NAMED 1905-10-12 21:00:00 ET 50.5497 -48.8020 main 360 353 P_____________ AL041905 50.5497 -48.8020 EX 50 -4 10 331
1905274N11281 1905 46 NA NA NOT_NAMED 1905-10-13 00:00:00 ET 51.0000 -49.2000 45 hurdat_atl main 358 358 O_____________ hurdat_atl AL041905 51.0000 -49.2000 EX 45 -4 11 332
1905274N11281 1905 46 NA NA NOT_NAMED 1905-10-13 03:00:00 ET 51.5499 -49.6425 main 367 367 P_____________ AL041905 51.5499 -49.6425 EX 40 -4 12 333
1905274N11281 1905 46 NA NA NOT_NAMED 1905-10-13 06:00:00 ET 52.1000 -50.1000 35 hurdat_atl main 373 343 O_____________ hurdat_atl AL041905 52.1000 -50.1000 EX 35 -4 11 331
1905274N11281 1905 46 NA NA NOT_NAMED 1905-10-13 09:00:00 ET 52.5571 -50.5371 main 344 315 P_____________ AL041905 52.5571 -50.5371 EX 35 -4 11 329
1905274N11281 1905 46 NA NA NOT_NAMED 1905-10-13 12:00:00 ET 53.0000 -51.0000 35 hurdat_atl main 315 284 O_____________ hurdat_atl AL041905 53.0000 -51.0000 EX 35 -4 11 327
1905274N11281 1905 46 NA NA NOT_NAMED 1905-10-13 15:00:00 ET 53.4857 -51.5264 main 284 254 P_____________ AL041905 53.4857 -51.5264 EX 35 -4 12 327
1905274N11281 1905 46 NA NA NOT_NAMED 1905-10-13 18:00:00 ET 54.0000 -52.1000 35 hurdat_atl main 254 O_____________ hurdat_atl AL041905 54.0000 -52.1000 EX 35 -4 12 327

About IBTrACS Database

This database is a web-friendly format of International Best Track Archive for Climate Stewardship (IBTrACS), a global best track data archive curated by NOAA dating back to 1842.

Updated: 2021-10-25